sensor_id;sensor_type;location;lat;lon;timestamp;P1;durP1;ratioP1;P2;durP2;ratioP2
52686;SDS011;38584;49.426;8.396;2022-11-28T00:00:25;11.88;;;5.40;;
52686;SDS011;38584;49.426;8.396;2022-11-28T00:02:51;14.23;;;5.85;;
52686;SDS011;38584;49.426;8.396;2022-11-28T00:05:16;12.98;;;6.00;;
52686;SDS011;38584;49.426;8.396;2022-11-28T00:07:41;12.60;;;5.70;;
52686;SDS011;38584;49.426;8.396;2022-11-28T00:10:07;13.45;;;6.18;;
52686;SDS011;38584;49.426;8.396;2022-11-28T00:12:33;12.60;;;5.60;;
52686;SDS011;38584;49.426;8.396;2022-11-28T00:14:59;14.38;;;6.47;;
52686;SDS011;38584;49.426;8.396;2022-11-28T00:17:24;11.77;;;5.50;;
52686;SDS011;38584;49.426;8.396;2022-11-28T00:19:49;12.57;;;5.80;;
52686;SDS011;38584;49.426;8.396;2022-11-28T00:22:14;14.55;;;5.93;;
52686;SDS011;38584;49.426;8.396;2022-11-28T00:24:40;14.07;;;6.40;;
52686;SDS011;38584;49.426;8.396;2022-11-28T00:27:05;13.50;;;6.30;;
52686;SDS011;38584;49.426;8.396;2022-11-28T00:29:30;14.02;;;5.55;;
52686;SDS011;38584;49.426;8.396;2022-11-28T00:31:56;13.43;;;6.22;;
52686;SDS011;38584;49.426;8.396;2022-11-28T00:34:21;13.30;;;6.03;;
52686;SDS011;38584;49.426;8.396;2022-11-28T00:36:46;11.88;;;5.80;;
52686;SDS011;38584;49.426;8.396;2022-11-28T00:39:12;15.13;;;6.20;;
52686;SDS011;38584;49.426;8.396;2022-11-28T00:41:38;13.68;;;6.25;;
52686;SDS011;38584;49.426;8.396;2022-11-28T00:44:03;13.57;;;6.07;;
52686;SDS011;38584;49.426;8.396;2022-11-28T00:46:29;13.30;;;6.75;;
52686;SDS011;38584;49.426;8.396;2022-11-28T00:48:54;13.25;;;6.60;;
52686;SDS011;38584;49.426;8.396;2022-11-28T00:51:22;11.90;;;5.80;;
52686;SDS011;38584;49.426;8.396;2022-11-28T00:53:50;16.27;;;7.10;;
52686;SDS011;38584;49.426;8.396;2022-11-28T00:56:17;15.70;;;6.15;;
52686;SDS011;38584;49.426;8.396;2022-11-28T00:58:44;15.98;;;6.43;;
52686;SDS011;38584;49.426;8.396;2022-11-28T01:01:11;14.93;;;6.07;;
52686;SDS011;38584;49.426;8.396;2022-11-28T01:03:38;13.85;;;6.60;;
52686;SDS011;38584;49.426;8.396;2022-11-28T01:06:04;14.23;;;6.50;;
52686;SDS011;38584;49.426;8.396;2022-11-28T01:08:30;14.52;;;6.90;;
52686;SDS011;38584;49.426;8.396;2022-11-28T01:10:55;16.83;;;6.15;;
52686;SDS011;38584;49.426;8.396;2022-11-28T01:13:21;13.70;;;6.65;;
52686;SDS011;38584;49.426;8.396;2022-11-28T01:15:46;14.88;;;6.55;;
52686;SDS011;38584;49.426;8.396;2022-11-28T01:18:11;13.05;;;6.07;;
52686;SDS011;38584;49.426;8.396;2022-11-28T01:20:37;13.68;;;6.78;;
52686;SDS011;38584;49.426;8.396;2022-11-28T01:23:02;14.13;;;6.22;;
52686;SDS011;38584;49.426;8.396;2022-11-28T01:25:28;14.40;;;6.82;;
52686;SDS011;38584;49.426;8.396;2022-11-28T01:27:53;13.38;;;6.72;;
52686;SDS011;38584;49.426;8.396;2022-11-28T01:30:19;13.23;;;6.50;;
52686;SDS011;38584;49.426;8.396;2022-11-28T01:32:44;14.10;;;6.57;;
52686;SDS011;38584;49.426;8.396;2022-11-28T01:35:10;13.93;;;6.68;;
52686;SDS011;38584;49.426;8.396;2022-11-28T01:37:35;13.77;;;6.88;;
52686;SDS011;38584;49.426;8.396;2022-11-28T01:40:00;16.65;;;7.47;;
52686;SDS011;38584;49.426;8.396;2022-11-28T01:42:26;13.05;;;6.55;;
52686;SDS011;38584;49.426;8.396;2022-11-28T01:47:17;14.27;;;7.23;;
52686;SDS011;38584;49.426;8.396;2022-11-28T01:49:47;14.88;;;6.88;;
52686;SDS011;38584;49.426;8.396;2022-11-28T01:52:14;14.73;;;6.97;;
52686;SDS011;38584;49.426;8.396;2022-11-28T01:54:43;14.43;;;6.80;;
52686;SDS011;38584;49.426;8.396;2022-11-28T01:57:14;14.77;;;6.85;;
52686;SDS011;38584;49.426;8.396;2022-11-28T01:59:45;14.25;;;7.00;;
52686;SDS011;38584;49.426;8.396;2022-11-28T02:02:22;15.38;;;7.00;;
52686;SDS011;38584;49.426;8.396;2022-11-28T02:04:51;14.57;;;7.22;;
52686;SDS011;38584;49.426;8.396;2022-11-28T02:07:17;13.80;;;6.60;;
52686;SDS011;38584;49.426;8.396;2022-11-28T02:09:43;16.63;;;7.50;;
52686;SDS011;38584;49.426;8.396;2022-11-28T02:12:10;15.00;;;7.25;;
52686;SDS011;38584;49.426;8.396;2022-11-28T02:17:30;14.90;;;7.78;;
52686;SDS011;38584;49.426;8.396;2022-11-28T02:23:03;14.70;;;7.55;;
52686;SDS011;38584;49.426;8.396;2022-11-28T02:40:15;14.55;;;7.35;;
52686;SDS011;38584;49.426;8.396;2022-11-28T02:46:09;14.73;;;7.70;;
52686;SDS011;38584;49.426;8.396;2022-11-28T02:48:49;15.45;;;7.65;;
52686;SDS011;38584;49.426;8.396;2022-11-28T02:51:22;15.07;;;7.60;;
52686;SDS011;38584;49.426;8.396;2022-11-28T02:53:57;15.10;;;7.65;;
52686;SDS011;38584;49.426;8.396;2022-11-28T02:56:23;16.60;;;7.13;;
52686;SDS011;38584;49.426;8.396;2022-11-28T02:58:49;16.77;;;6.80;;
52686;SDS011;38584;49.426;8.396;2022-11-28T03:01:16;14.23;;;6.88;;
52686;SDS011;38584;49.426;8.396;2022-11-28T03:03:47;15.05;;;7.30;;
52686;SDS011;38584;49.426;8.396;2022-11-28T03:12:07;14.98;;;8.02;;
52686;SDS011;38584;49.426;8.396;2022-11-28T03:14:48;16.70;;;8.07;;
52686;SDS011;38584;49.426;8.396;2022-11-28T03:17:20;13.55;;;6.93;;
52686;SDS011;38584;49.426;8.396;2022-11-28T03:23:00;15.52;;;7.95;;
52686;SDS011;38584;49.426;8.396;2022-11-28T03:28:18;15.80;;;8.38;;
52686;SDS011;38584;49.426;8.396;2022-11-28T03:33:13;14.75;;;8.18;;
52686;SDS011;38584;49.426;8.396;2022-11-28T03:35:42;15.65;;;8.30;;
52686;SDS011;38584;49.426;8.396;2022-11-28T03:38:33;15.70;;;8.23;;
52686;SDS011;38584;49.426;8.396;2022-11-28T03:40:58;16.85;;;8.50;;
52686;SDS011;38584;49.426;8.396;2022-11-28T03:43:29;15.25;;;8.15;;
52686;SDS011;38584;49.426;8.396;2022-11-28T03:46:00;15.38;;;8.13;;
52686;SDS011;38584;49.426;8.396;2022-11-28T03:48:29;14.88;;;7.95;;
52686;SDS011;38584;49.426;8.396;2022-11-28T03:50:58;14.48;;;8.20;;
52686;SDS011;38584;49.426;8.396;2022-11-28T03:53:41;14.32;;;8.10;;
52686;SDS011;38584;49.426;8.396;2022-11-28T03:56:20;16.25;;;8.65;;
52686;SDS011;38584;49.426;8.396;2022-11-28T03:58:57;15.60;;;8.15;;
52686;SDS011;38584;49.426;8.396;2022-11-28T04:01:30;17.25;;;9.55;;
52686;SDS011;38584;49.426;8.396;2022-11-28T04:04:15;16.63;;;9.00;;
52686;SDS011;38584;49.426;8.396;2022-11-28T04:06:53;16.77;;;8.80;;
52686;SDS011;38584;49.426;8.396;2022-11-28T04:09:29;16.30;;;8.40;;
52686;SDS011;38584;49.426;8.396;2022-11-28T04:12:28;15.63;;;8.45;;
52686;SDS011;38584;49.426;8.396;2022-11-28T04:14:59;15.88;;;8.70;;
52686;SDS011;38584;49.426;8.396;2022-11-28T04:17:32;16.25;;;8.88;;
52686;SDS011;38584;49.426;8.396;2022-11-28T04:20:04;17.40;;;9.18;;
52686;SDS011;38584;49.426;8.396;2022-11-28T04:22:33;18.17;;;9.30;;
52686;SDS011;38584;49.426;8.396;2022-11-28T04:25:02;17.10;;;8.65;;
52686;SDS011;38584;49.426;8.396;2022-11-28T04:27:31;16.73;;;9.07;;
52686;SDS011;38584;49.426;8.396;2022-11-28T04:30:00;20.02;;;9.88;;
52686;SDS011;38584;49.426;8.396;2022-11-28T04:32:26;18.92;;;8.88;;
52686;SDS011;38584;49.426;8.396;2022-11-28T04:34:54;16.88;;;9.40;;
52686;SDS011;38584;49.426;8.396;2022-11-28T04:37:22;18.27;;;9.73;;
52686;SDS011;38584;49.426;8.396;2022-11-28T04:39:50;17.10;;;9.77;;
52686;SDS011;38584;49.426;8.396;2022-11-28T04:42:17;17.45;;;10.05;;
52686;SDS011;38584;49.426;8.396;2022-11-28T04:47:27;18.25;;;10.40;;
52686;SDS011;38584;49.426;8.396;2022-11-28T04:49:53;17.90;;;10.68;;
52686;SDS011;38584;49.426;8.396;2022-11-28T04:52:20;16.92;;;9.90;;
52686;SDS011;38584;49.426;8.396;2022-11-28T04:57:34;19.42;;;9.90;;
52686;SDS011;38584;49.426;8.396;2022-11-28T05:00:04;17.58;;;9.82;;
52686;SDS011;38584;49.426;8.396;2022-11-28T05:02:31;17.45;;;10.43;;
52686;SDS011;38584;49.426;8.396;2022-11-28T05:04:58;16.90;;;10.23;;
52686;SDS011;38584;49.426;8.396;2022-11-28T05:07:23;23.85;;;12.90;;
52686;SDS011;38584;49.426;8.396;2022-11-28T05:09:49;30.80;;;15.88;;
52686;SDS011;38584;49.426;8.396;2022-11-28T05:12:14;22.13;;;12.77;;
52686;SDS011;38584;49.426;8.396;2022-11-28T05:14:40;19.52;;;11.18;;
52686;SDS011;38584;49.426;8.396;2022-11-28T05:17:06;18.70;;;11.40;;
52686;SDS011;38584;49.426;8.396;2022-11-28T05:19:31;18.52;;;10.07;;
52686;SDS011;38584;49.426;8.396;2022-11-28T05:21:57;17.75;;;10.25;;
52686;SDS011;38584;49.426;8.396;2022-11-28T05:24:22;21.67;;;11.32;;
52686;SDS011;38584;49.426;8.396;2022-11-28T05:26:47;17.48;;;10.15;;
52686;SDS011;38584;49.426;8.396;2022-11-28T05:29:13;17.50;;;10.40;;
52686;SDS011;38584;49.426;8.396;2022-11-28T05:31:38;18.10;;;10.43;;
52686;SDS011;38584;49.426;8.396;2022-11-28T05:34:03;17.98;;;10.20;;
52686;SDS011;38584;49.426;8.396;2022-11-28T05:36:29;18.27;;;10.75;;
52686;SDS011;38584;49.426;8.396;2022-11-28T05:38:54;20.20;;;11.40;;
52686;SDS011;38584;49.426;8.396;2022-11-28T05:41:27;20.60;;;11.30;;
52686;SDS011;38584;49.426;8.396;2022-11-28T05:43:54;20.83;;;10.50;;
52686;SDS011;38584;49.426;8.396;2022-11-28T05:46:20;19.00;;;10.98;;
52686;SDS011;38584;49.426;8.396;2022-11-28T05:48:45;18.95;;;10.65;;
52686;SDS011;38584;49.426;8.396;2022-11-28T05:51:11;17.48;;;10.40;;
52686;SDS011;38584;49.426;8.396;2022-11-28T05:53:36;21.33;;;11.52;;
52686;SDS011;38584;49.426;8.396;2022-11-28T05:56:14;20.48;;;11.50;;
52686;SDS011;38584;49.426;8.396;2022-11-28T05:58:41;19.98;;;11.20;;
52686;SDS011;38584;49.426;8.396;2022-11-28T06:01:14;20.33;;;11.85;;
52686;SDS011;38584;49.426;8.396;2022-11-28T06:03:41;21.15;;;11.63;;
52686;SDS011;38584;49.426;8.396;2022-11-28T06:06:17;23.10;;;12.00;;
52686;SDS011;38584;49.426;8.396;2022-11-28T06:08:45;18.90;;;11.40;;
52686;SDS011;38584;49.426;8.396;2022-11-28T06:11:11;21.20;;;11.85;;
52686;SDS011;38584;49.426;8.396;2022-11-28T06:13:38;19.08;;;11.63;;
52686;SDS011;38584;49.426;8.396;2022-11-28T06:16:08;21.98;;;12.73;;
52686;SDS011;38584;49.426;8.396;2022-11-28T06:18:34;18.92;;;11.40;;
52686;SDS011;38584;49.426;8.396;2022-11-28T06:21:03;22.80;;;11.80;;
52686;SDS011;38584;49.426;8.396;2022-11-28T06:23:29;20.48;;;11.73;;
52686;SDS011;38584;49.426;8.396;2022-11-28T06:25:55;21.05;;;11.68;;
52686;SDS011;38584;49.426;8.396;2022-11-28T06:28:21;19.27;;;11.82;;
52686;SDS011;38584;49.426;8.396;2022-11-28T06:30:46;21.42;;;12.02;;
52686;SDS011;38584;49.426;8.396;2022-11-28T06:33:11;19.63;;;11.85;;
52686;SDS011;38584;49.426;8.396;2022-11-28T06:35:37;19.63;;;11.20;;
52686;SDS011;38584;49.426;8.396;2022-11-28T06:38:02;21.60;;;11.88;;
52686;SDS011;38584;49.426;8.396;2022-11-28T06:40:28;21.65;;;12.52;;
52686;SDS011;38584;49.426;8.396;2022-11-28T06:42:53;21.83;;;11.75;;
52686;SDS011;38584;49.426;8.396;2022-11-28T06:45:18;19.88;;;11.52;;
52686;SDS011;38584;49.426;8.396;2022-11-28T06:47:43;20.25;;;12.02;;
52686;SDS011;38584;49.426;8.396;2022-11-28T06:50:10;18.85;;;11.13;;
52686;SDS011;38584;49.426;8.396;2022-11-28T06:52:35;21.80;;;11.25;;
52686;SDS011;38584;49.426;8.396;2022-11-28T06:55:01;19.60;;;11.57;;
52686;SDS011;38584;49.426;8.396;2022-11-28T06:57:26;19.60;;;12.15;;
52686;SDS011;38584;49.426;8.396;2022-11-28T06:59:51;19.55;;;11.27;;
52686;SDS011;38584;49.426;8.396;2022-11-28T07:02:17;20.45;;;11.05;;
52686;SDS011;38584;49.426;8.396;2022-11-28T07:04:42;19.77;;;11.40;;
52686;SDS011;38584;49.426;8.396;2022-11-28T07:07:07;19.52;;;11.27;;
52686;SDS011;38584;49.426;8.396;2022-11-28T07:09:33;18.15;;;10.98;;
52686;SDS011;38584;49.426;8.396;2022-11-28T07:11:58;22.30;;;12.13;;
52686;SDS011;38584;49.426;8.396;2022-11-28T07:14:23;24.27;;;11.40;;
52686;SDS011;38584;49.426;8.396;2022-11-28T07:16:49;19.48;;;12.20;;
52686;SDS011;38584;49.426;8.396;2022-11-28T07:19:14;20.83;;;12.18;;
52686;SDS011;38584;49.426;8.396;2022-11-28T07:21:40;20.55;;;11.90;;
52686;SDS011;38584;49.426;8.396;2022-11-28T07:24:05;19.30;;;11.15;;
52686;SDS011;38584;49.426;8.396;2022-11-28T07:26:31;20.00;;;12.10;;
52686;SDS011;38584;49.426;8.396;2022-11-28T07:28:56;20.83;;;11.93;;
52686;SDS011;38584;49.426;8.396;2022-11-28T07:31:23;18.80;;;11.45;;
52686;SDS011;38584;49.426;8.396;2022-11-28T07:33:50;23.33;;;12.63;;
52686;SDS011;38584;49.426;8.396;2022-11-28T07:36:18;21.02;;;12.02;;
52686;SDS011;38584;49.426;8.396;2022-11-28T07:38:45;20.73;;;12.70;;
52686;SDS011;38584;49.426;8.396;2022-11-28T07:41:14;21.33;;;12.18;;
52686;SDS011;38584;49.426;8.396;2022-11-28T07:43:41;23.42;;;12.65;;
52686;SDS011;38584;49.426;8.396;2022-11-28T07:46:11;26.52;;;12.35;;
52686;SDS011;38584;49.426;8.396;2022-11-28T07:48:37;21.48;;;12.43;;
52686;SDS011;38584;49.426;8.396;2022-11-28T07:51:04;24.67;;;13.00;;
52686;SDS011;38584;49.426;8.396;2022-11-28T07:53:30;21.98;;;13.82;;
52686;SDS011;38584;49.426;8.396;2022-11-28T07:55:59;25.08;;;13.68;;
52686;SDS011;38584;49.426;8.396;2022-11-28T07:58:25;21.77;;;12.98;;
52686;SDS011;38584;49.426;8.396;2022-11-28T08:00:50;21.23;;;12.68;;
52686;SDS011;38584;49.426;8.396;2022-11-28T08:03:16;23.30;;;13.25;;
52686;SDS011;38584;49.426;8.396;2022-11-28T08:05:41;24.70;;;13.20;;
52686;SDS011;38584;49.426;8.396;2022-11-28T08:08:13;23.33;;;13.63;;
52686;SDS011;38584;49.426;8.396;2022-11-28T08:10:38;21.42;;;13.20;;
52686;SDS011;38584;49.426;8.396;2022-11-28T08:13:03;23.40;;;13.48;;
52686;SDS011;38584;49.426;8.396;2022-11-28T08:15:29;22.77;;;13.27;;
52686;SDS011;38584;49.426;8.396;2022-11-28T08:17:56;21.88;;;12.80;;
52686;SDS011;38584;49.426;8.396;2022-11-28T08:20:21;21.35;;;12.68;;
52686;SDS011;38584;49.426;8.396;2022-11-28T08:22:46;21.70;;;12.68;;
52686;SDS011;38584;49.426;8.396;2022-11-28T08:25:11;21.67;;;12.90;;
52686;SDS011;38584;49.426;8.396;2022-11-28T08:27:37;21.13;;;12.18;;
52686;SDS011;38584;49.426;8.396;2022-11-28T08:30:02;24.55;;;12.77;;
52686;SDS011;38584;49.426;8.396;2022-11-28T08:32:28;22.63;;;13.05;;
52686;SDS011;38584;49.426;8.396;2022-11-28T08:34:54;23.50;;;13.20;;
52686;SDS011;38584;49.426;8.396;2022-11-28T08:37:19;25.88;;;12.02;;
52686;SDS011;38584;49.426;8.396;2022-11-28T08:39:45;25.02;;;12.35;;
52686;SDS011;38584;49.426;8.396;2022-11-28T08:42:10;20.70;;;12.65;;
52686;SDS011;38584;49.426;8.396;2022-11-28T08:44:35;23.52;;;13.00;;
52686;SDS011;38584;49.426;8.396;2022-11-28T08:47:01;23.10;;;11.30;;
52686;SDS011;38584;49.426;8.396;2022-11-28T08:49:26;21.58;;;12.98;;
52686;SDS011;38584;49.426;8.396;2022-11-28T08:51:51;22.63;;;12.82;;
52686;SDS011;38584;49.426;8.396;2022-11-28T08:54:17;22.42;;;12.38;;
52686;SDS011;38584;49.426;8.396;2022-11-28T08:56:42;25.00;;;13.55;;
52686;SDS011;38584;49.426;8.396;2022-11-28T08:59:09;26.63;;;13.45;;
52686;SDS011;38584;49.426;8.396;2022-11-28T09:01:34;22.80;;;12.68;;
52686;SDS011;38584;49.426;8.396;2022-11-28T09:03:59;21.05;;;12.52;;
52686;SDS011;38584;49.426;8.396;2022-11-28T09:06:25;21.33;;;12.40;;
52686;SDS011;38584;49.426;8.396;2022-11-28T09:08:50;21.30;;;12.13;;
52686;SDS011;38584;49.426;8.396;2022-11-28T09:11:17;19.80;;;11.07;;
52686;SDS011;38584;49.426;8.396;2022-11-28T09:13:43;23.40;;;12.20;;
52686;SDS011;38584;49.426;8.396;2022-11-28T09:16:09;21.13;;;11.90;;
52686;SDS011;38584;49.426;8.396;2022-11-28T09:18:35;21.52;;;11.45;;
52686;SDS011;38584;49.426;8.396;2022-11-28T09:21:01;22.20;;;12.55;;
52686;SDS011;38584;49.426;8.396;2022-11-28T09:23:34;20.23;;;11.67;;
52686;SDS011;38584;49.426;8.396;2022-11-28T09:26:00;25.25;;;11.85;;
52686;SDS011;38584;49.426;8.396;2022-11-28T09:28:25;19.92;;;11.15;;
52686;SDS011;38584;49.426;8.396;2022-11-28T09:31:11;21.10;;;12.02;;
52686;SDS011;38584;49.426;8.396;2022-11-28T09:36:12;20.60;;;10.77;;
52686;SDS011;38584;49.426;8.396;2022-11-28T09:38:39;18.88;;;10.52;;
52686;SDS011;38584;49.426;8.396;2022-11-28T09:46:57;19.90;;;11.27;;
52686;SDS011;38584;49.426;8.396;2022-11-28T09:49:34;20.67;;;10.98;;
52686;SDS011;38584;49.426;8.396;2022-11-28T09:52:05;20.25;;;11.43;;
52686;SDS011;38584;49.426;8.396;2022-11-28T09:54:55;18.83;;;10.68;;
52686;SDS011;38584;49.426;8.396;2022-11-28T09:57:41;19.85;;;11.50;;
52686;SDS011;38584;49.426;8.396;2022-11-28T10:00:12;23.63;;;11.20;;
52686;SDS011;38584;49.426;8.396;2022-11-28T10:08:24;20.35;;;11.32;;
52686;SDS011;38584;49.426;8.396;2022-11-28T10:16:26;21.25;;;11.82;;
52686;SDS011;38584;49.426;8.396;2022-11-28T10:19:02;22.83;;;12.23;;
52686;SDS011;38584;49.426;8.396;2022-11-28T10:21:32;19.83;;;11.48;;
52686;SDS011;38584;49.426;8.396;2022-11-28T10:24:02;21.65;;;12.18;;
52686;SDS011;38584;49.426;8.396;2022-11-28T10:26:35;22.17;;;12.20;;
52686;SDS011;38584;49.426;8.396;2022-11-28T10:29:21;23.02;;;12.50;;
52686;SDS011;38584;49.426;8.396;2022-11-28T10:31:51;21.05;;;12.45;;
52686;SDS011;38584;49.426;8.396;2022-11-28T10:36:59;24.52;;;13.27;;
52686;SDS011;38584;49.426;8.396;2022-11-28T10:39:25;21.10;;;12.40;;
52686;SDS011;38584;49.426;8.396;2022-11-28T10:42:02;24.15;;;12.88;;
52686;SDS011;38584;49.426;8.396;2022-11-28T10:50:00;23.52;;;13.15;;
52686;SDS011;38584;49.426;8.396;2022-11-28T11:00:30;22.20;;;13.48;;
52686;SDS011;38584;49.426;8.396;2022-11-28T11:02:59;22.15;;;13.23;;
52686;SDS011;38584;49.426;8.396;2022-11-28T11:05:29;20.80;;;12.57;;
52686;SDS011;38584;49.426;8.396;2022-11-28T11:08:18;20.40;;;12.18;;
52686;SDS011;38584;49.426;8.396;2022-11-28T11:13:25;19.92;;;12.02;;
52686;SDS011;38584;49.426;8.396;2022-11-28T11:15:55;22.23;;;12.32;;
52686;SDS011;38584;49.426;8.396;2022-11-28T11:21:29;24.70;;;12.93;;
52686;SDS011;38584;49.426;8.396;2022-11-28T11:23:50;21.50;;;13.05;;
52686;SDS011;38584;49.426;8.396;2022-11-28T11:26:39;20.80;;;11.90;;
52686;SDS011;38584;49.426;8.396;2022-11-28T11:29:18;20.67;;;12.27;;
52686;SDS011;38584;49.426;8.396;2022-11-28T11:31:51;21.83;;;12.05;;
52686;SDS011;38584;49.426;8.396;2022-11-28T11:34:17;21.73;;;12.32;;
52686;SDS011;38584;49.426;8.396;2022-11-28T11:36:44;22.52;;;12.32;;
52686;SDS011;38584;49.426;8.396;2022-11-28T11:41:35;22.27;;;12.43;;
52686;SDS011;38584;49.426;8.396;2022-11-28T11:46:49;22.15;;;13.20;;
52686;SDS011;38584;49.426;8.396;2022-11-28T11:49:28;22.75;;;12.60;;
52686;SDS011;38584;49.426;8.396;2022-11-28T11:52:20;23.35;;;13.90;;
52686;SDS011;38584;49.426;8.396;2022-11-28T11:57:21;24.73;;;13.20;;
52686;SDS011;38584;49.426;8.396;2022-11-28T11:59:49;22.40;;;13.20;;
52686;SDS011;38584;49.426;8.396;2022-11-28T12:04:55;26.05;;;13.48;;
52686;SDS011;38584;49.426;8.396;2022-11-28T12:07:28;21.85;;;12.50;;
52686;SDS011;38584;49.426;8.396;2022-11-28T12:09:57;24.40;;;12.52;;
52686;SDS011;38584;49.426;8.396;2022-11-28T12:12:24;24.00;;;13.85;;
52686;SDS011;38584;49.426;8.396;2022-11-28T12:14:53;19.58;;;12.13;;
52686;SDS011;38584;49.426;8.396;2022-11-28T12:17:33;20.70;;;12.50;;
52686;SDS011;38584;49.426;8.396;2022-11-28T12:20:21;22.75;;;12.73;;
52686;SDS011;38584;49.426;8.396;2022-11-28T12:25:35;22.38;;;13.00;;
52686;SDS011;38584;49.426;8.396;2022-11-28T12:33:36;21.88;;;13.15;;
52686;SDS011;38584;49.426;8.396;2022-11-28T12:49:49;21.85;;;12.23;;
52686;SDS011;38584;49.426;8.396;2022-11-28T12:52:23;24.45;;;12.63;;
52686;SDS011;38584;49.426;8.396;2022-11-28T12:57:50;21.25;;;13.30;;
52686;SDS011;38584;49.426;8.396;2022-11-28T13:00:21;22.60;;;13.00;;
52686;SDS011;38584;49.426;8.396;2022-11-28T13:02:52;21.55;;;12.88;;
52686;SDS011;38584;49.426;8.396;2022-11-28T13:05:47;21.40;;;12.65;;
52686;SDS011;38584;49.426;8.396;2022-11-28T13:13:53;21.42;;;11.93;;
52686;SDS011;38584;49.426;8.396;2022-11-28T13:19:13;21.42;;;12.25;;
52686;SDS011;38584;49.426;8.396;2022-11-28T13:24:31;21.15;;;12.73;;
52686;SDS011;38584;49.426;8.396;2022-11-28T13:33:00;21.02;;;12.10;;
52686;SDS011;38584;49.426;8.396;2022-11-28T13:35:28;20.38;;;11.93;;
52686;SDS011;38584;49.426;8.396;2022-11-28T13:37:57;26.15;;;12.80;;
52686;SDS011;38584;49.426;8.396;2022-11-28T13:43:24;20.90;;;11.77;;
52686;SDS011;38584;49.426;8.396;2022-11-28T13:45:56;22.92;;;12.77;;
52686;SDS011;38584;49.426;8.396;2022-11-28T13:51:14;21.35;;;12.40;;
52686;SDS011;38584;49.426;8.396;2022-11-28T13:53:42;18.65;;;11.70;;
52686;SDS011;38584;49.426;8.396;2022-11-28T13:56:26;22.73;;;11.18;;
52686;SDS011;38584;49.426;8.396;2022-11-28T13:58:55;22.83;;;11.80;;
52686;SDS011;38584;49.426;8.396;2022-11-28T14:01:22;23.13;;;11.60;;
52686;SDS011;38584;49.426;8.396;2022-11-28T14:06:25;20.02;;;11.93;;
52686;SDS011;38584;49.426;8.396;2022-11-28T14:12:02;20.83;;;12.02;;
52686;SDS011;38584;49.426;8.396;2022-11-28T14:17:12;20.88;;;12.43;;
52686;SDS011;38584;49.426;8.396;2022-11-28T14:19:50;20.95;;;12.05;;
52686;SDS011;38584;49.426;8.396;2022-11-28T14:25:27;23.00;;;12.40;;
52686;SDS011;38584;49.426;8.396;2022-11-28T14:28:04;21.20;;;12.57;;
52686;SDS011;38584;49.426;8.396;2022-11-28T14:33:12;20.58;;;12.90;;
52686;SDS011;38584;49.426;8.396;2022-11-28T14:43:25;22.45;;;14.18;;
52686;SDS011;38584;49.426;8.396;2022-11-28T14:45:56;22.55;;;13.88;;
52686;SDS011;38584;49.426;8.396;2022-11-28T14:54:49;21.57;;;13.20;;
52686;SDS011;38584;49.426;8.396;2022-11-28T14:56:56;23.20;;;13.38;;
52686;SDS011;38584;49.426;8.396;2022-11-28T14:59:35;21.13;;;13.70;;
52686;SDS011;38584;49.426;8.396;2022-11-28T15:02:06;20.95;;;13.30;;
52686;SDS011;38584;49.426;8.396;2022-11-28T15:04:41;22.63;;;14.18;;
52686;SDS011;38584;49.426;8.396;2022-11-28T15:07:29;22.25;;;13.52;;
52686;SDS011;38584;49.426;8.396;2022-11-28T15:12:47;23.60;;;13.50;;
52686;SDS011;38584;49.426;8.396;2022-11-28T15:15:18;24.25;;;13.48;;
52686;SDS011;38584;49.426;8.396;2022-11-28T15:17:47;22.75;;;14.13;;
52686;SDS011;38584;49.426;8.396;2022-11-28T15:20:26;23.33;;;13.38;;
52686;SDS011;38584;49.426;8.396;2022-11-28T15:22:53;24.63;;;13.80;;
52686;SDS011;38584;49.426;8.396;2022-11-28T15:25:23;27.95;;;14.70;;
52686;SDS011;38584;49.426;8.396;2022-11-28T15:27:49;26.27;;;14.38;;
52686;SDS011;38584;49.426;8.396;2022-11-28T15:30:18;24.90;;;14.13;;
52686;SDS011;38584;49.426;8.396;2022-11-28T15:32:50;24.60;;;15.20;;
52686;SDS011;38584;49.426;8.396;2022-11-28T15:35:18;26.67;;;15.50;;
52686;SDS011;38584;49.426;8.396;2022-11-28T15:37:48;28.13;;;16.40;;
52686;SDS011;38584;49.426;8.396;2022-11-28T15:40:16;24.65;;;15.48;;
52686;SDS011;38584;49.426;8.396;2022-11-28T15:42:46;26.05;;;16.48;;
52686;SDS011;38584;49.426;8.396;2022-11-28T15:45:25;25.90;;;15.27;;
52686;SDS011;38584;49.426;8.396;2022-11-28T15:47:53;24.27;;;15.45;;
52686;SDS011;38584;49.426;8.396;2022-11-28T15:50:20;25.30;;;15.55;;
52686;SDS011;38584;49.426;8.396;2022-11-28T15:53:02;28.45;;;15.23;;
52686;SDS011;38584;49.426;8.396;2022-11-28T15:55:38;27.13;;;15.27;;
52686;SDS011;38584;49.426;8.396;2022-11-28T16:00:41;26.45;;;15.93;;
52686;SDS011;38584;49.426;8.396;2022-11-28T16:03:12;27.05;;;16.08;;
52686;SDS011;38584;49.426;8.396;2022-11-28T16:05:42;26.70;;;15.73;;
52686;SDS011;38584;49.426;8.396;2022-11-28T16:08:15;26.42;;;16.08;;
52686;SDS011;38584;49.426;8.396;2022-11-28T16:10:43;29.13;;;17.38;;
52686;SDS011;38584;49.426;8.396;2022-11-28T16:13:10;28.02;;;16.67;;
52686;SDS011;38584;49.426;8.396;2022-11-28T16:15:37;25.67;;;16.45;;
52686;SDS011;38584;49.426;8.396;2022-11-28T16:18:03;26.48;;;17.40;;
52686;SDS011;38584;49.426;8.396;2022-11-28T16:20:32;25.55;;;16.25;;
52686;SDS011;38584;49.426;8.396;2022-11-28T16:22:58;25.58;;;14.88;;
52686;SDS011;38584;49.426;8.396;2022-11-28T16:25:27;30.38;;;16.10;;
52686;SDS011;38584;49.426;8.396;2022-11-28T16:27:54;28.25;;;16.48;;
52686;SDS011;38584;49.426;8.396;2022-11-28T16:32:46;25.07;;;15.70;;
52686;SDS011;38584;49.426;8.396;2022-11-28T16:35:11;23.98;;;15.10;;
52686;SDS011;38584;49.426;8.396;2022-11-28T16:37:37;27.20;;;16.05;;
52686;SDS011;38584;49.426;8.396;2022-11-28T16:40:04;30.55;;;18.10;;
52686;SDS011;38584;49.426;8.396;2022-11-28T16:42:37;31.77;;;17.30;;
52686;SDS011;38584;49.426;8.396;2022-11-28T16:45:09;28.50;;;16.95;;
52686;SDS011;38584;49.426;8.396;2022-11-28T16:47:38;27.92;;;16.58;;
52686;SDS011;38584;49.426;8.396;2022-11-28T16:50:13;25.17;;;16.70;;
52686;SDS011;38584;49.426;8.396;2022-11-28T16:55:51;27.92;;;17.05;;
52686;SDS011;38584;49.426;8.396;2022-11-28T16:58:04;25.67;;;16.38;;
52686;SDS011;38584;49.426;8.396;2022-11-28T17:00:37;25.90;;;16.70;;
52686;SDS011;38584;49.426;8.396;2022-11-28T17:03:04;27.23;;;16.65;;
52686;SDS011;38584;49.426;8.396;2022-11-28T17:05:30;28.15;;;15.68;;
52686;SDS011;38584;49.426;8.396;2022-11-28T17:07:55;24.55;;;15.50;;
52686;SDS011;38584;49.426;8.396;2022-11-28T17:10:21;29.15;;;18.63;;
52686;SDS011;38584;49.426;8.396;2022-11-28T17:12:48;28.40;;;19.08;;
52686;SDS011;38584;49.426;8.396;2022-11-28T17:15:14;26.38;;;18.17;;
52686;SDS011;38584;49.426;8.396;2022-11-28T17:17:42;28.08;;;18.15;;
52686;SDS011;38584;49.426;8.396;2022-11-28T17:20:08;35.28;;;20.10;;
52686;SDS011;38584;49.426;8.396;2022-11-28T17:22:36;28.90;;;18.13;;
52686;SDS011;38584;49.426;8.396;2022-11-28T17:25:05;30.08;;;18.63;;
52686;SDS011;38584;49.426;8.396;2022-11-28T17:27:31;28.23;;;17.48;;
52686;SDS011;38584;49.426;8.396;2022-11-28T17:29:56;28.95;;;17.20;;
52686;SDS011;38584;49.426;8.396;2022-11-28T17:32:22;25.58;;;16.08;;
52686;SDS011;38584;49.426;8.396;2022-11-28T17:34:47;30.73;;;16.80;;
52686;SDS011;38584;49.426;8.396;2022-11-28T17:37:13;22.80;;;14.95;;
52686;SDS011;38584;49.426;8.396;2022-11-28T17:39:38;23.75;;;15.52;;